Terminal Aerodrome Forecast
Issued by NWS

Home | Current Version | Previous Version | Graphics & Text | Print | Product List | Glossary On
Versions: 1 2 3 4 5 6 7 8 9 10 11 12 13 14 15 16 17
044
FTUS43 KIWX 230529
TAFSBN
TAF
KSBN 230529Z 2306/2406 34008KT P6SM -RA OVC003
     FM230800 35007KT 4SM RA BR OVC002
     FM240000 31007KT P6SM -RA BKN025=

USA.gov is the U.S. government's official web portal to all federal, state and local government web resources and services.